Main page
METAR-TAF:

METAR-TAF

Airports :

Miami-Opa Locka Executive Airport

Miami, Florida, United States

latitude: 25-54-36N, longitude: 080-16-59W, elevation: 10 ft

Current weather observation

The report was made 10 minutes ago, at 21:53 UTC
Wind 13 mph from the East/Southeast
Temperature 79°F
Humidity 65%
Pressure 30.16 in. Hg
Visibility: 10 miles
Few clouds at a height of 2800 ft
Few clouds at a height of 3700 ft

METAR: KOPF 272153Z 11011KT 10SM FEW028 FEW037 26/19 A3016 RMK AO2 SLP214 T02610194 $

Time: 17:03 (22:03 UTC)

Forecast

The report was made 1 hour and 10 minutes ago, at 20:53 UTC
Forecast valid from 27 at 21 UTC to 28 at 18 UTC
Wind 16 mph from the Southeast
Visibility: 6 miles
Scattered clouds at a height of 3000 ft
From 28 at 0300 UTC
Wind 15 mph from the East/Southeast
Visibility: 6 miles
Few clouds at a height of 2000 ft

TAF: KOPF 272053Z 2721/2818 13014KT P6SM SCT030 FM280300 11013KT P6SM FEW020

Weather observations and forecasts of more than 4000 airports (METAR and TAF reports).

The available stations are represented by yellow and red dots on the map.

Hover mouse over dot to see the name of the station.

Then click to see weather observations and forecasts.

To change the map : click on the green buttons with a black cross to zoom in, on the green button with a dash to zoom out, or on the green arrows for adjacent maps.


METAR-TAF: